CST,Max TemperatureF,Mean TemperatureF,Min TemperatureF,Max Dew PointF,MeanDew PointF,Min DewpointF,Max Humidity, Mean Humidity, Min Humidity, Max Sea Level PressureIn, Mean Sea Level PressureIn, Min Sea Level PressureIn, Max VisibilityMiles, Mean VisibilityMiles, Min VisibilityMiles, Max Wind SpeedMPH, Mean Wind SpeedMPH, Max Gust SpeedMPH,PrecipitationIn, CloudCover, Events, WindDirDegrees
2012-1-1,70,57,43,65,47,30,93,61,28,30.49,30.26,30.07,10,9,7,24,11,36,0.00,2,,298
2012-1-2,56,45,33,29,23,17,75,49,22,30.63,30.54,30.49,10,10,10,17,8,22,0.00,0,,321
2012-1-3,51,37,23,23,17,5,81,49,16,30.65,30.52,30.39,10,10,10,9,3,13,0.00,0,,152
2012-1-4,68,49,30,50,40,22,93,73,52,30.38,30.31,30.23,10,8,2,16,4,21,0.00,3,,159
2012-1-5,70,53,36,46,41,36,100,70,40,30.31,30.25,30.13,10,5,0,10,1,12,0.00,1,Fog,47
2012-1-6,71,59,47,61,54,45,100,83,66,30.13,30.08,30.00,10,5,0,20,5,24,0.01,5,Fog,178
2012-1-7,72,61,49,63,56,48,100,84,68,30.08,30.02,29.98,10,3,0,15,5,17,0.11,4,Fog-Rain,142
2012-1-8,72,65,57,63,61,57,100,87,73,30.13,30.07,30.03,9,4,0,12,3,16,0.03,5,Fog-Rain,113
2012-1-9,65,60,55,64,60,53,100,95,90,30.10,30.02,29.94,10,4,0,24,6,38,0.77,8,Fog-Rain-Thunderstorm,83
2012-1-10,65,57,48,63,55,43,100,90,80,29.94,29.83,29.77,10,8,2,16,9,21,0.16,8,Rain-Thunderstorm,165
2012-1-11,65,56,47,47,44,40,93,67,40,29.85,29.77,29.71,10,10,9,13,7,16,0.00,5,,230
2012-1-12,54,43,32,49,27,15,83,56,28,30.24,30.04,29.72,10,10,10,29,14,38,0.00,0,,302
2012-1-13,50,39,27,24,18,9,81,51,21,30.35,30.30,30.24,10,10,10,15,4,20,0.00,0,,308
2012-1-14,64,45,25,35,27,21,88,56,23,30.39,30.35,30.29,10,10,9,17,4,22,0.00,0,,222
2012-1-15,67,49,30,41,35,28,100,65,29,30.46,30.36,30.30,10,10,7,15,5,20,0.00,2,,150
2012-1-16,75,65,54,62,57,41,87,71,55,30.28,30.15,30.07,10,10,9,26,12,39,T,8,,169
2012-1-17,72,61,50,67,61,38,93,75,57,30.22,30.05,29.98,10,7,0,17,9,29,2.12,7,Fog-Rain-Thunderstorm,222
2012-1-18,56,46,36,36,32,28,85,62,38,30.32,30.22,30.11,10,10,10,16,5,24,0.00,0,,59
2012-1-19,68,52,35,59,51,34,100,84,68,30.09,29.99,29.92,10,8,0,18,7,24,0.00,6,Fog,152
2012-1-20,77,67,57,66,63,57,100,85,69,29.94,29.89,29.83,10,6,0,24,12,32,0.00,7,Fog,184
2012-1-21,79,67,55,66,60,48,93,75,56,29.98,29.92,29.88,10,8,5,18,7,23,0.00,6,,189
2012-1-22,75,65,54,66,60,50,100,84,68,29.94,29.87,29.77,10,6,0,21,10,32,0.00,7,Fog,155
2012-1-23,71,58,44,65,44,34,84,56,28,30.09,30.02,29.88,10,8,3,17,8,22,0.00,3,,341
2012-1-24,63,52,40,52,42,36,93,66,39,30.17,30.09,30.02,10,9,3,13,6,17,0.19,5,Rain,79
2012-1-25,75,65,54,67,59,51,97,83,68,30.02,29.89,29.76,10,6,1,32,12,43,1.82,8,Rain-Thunderstorm,131
2012-1-26,63,56,48,61,51,45,93,85,77,30.03,29.87,29.80,10,8,0,15,8,22,0.02,8,Fog-Rain,271
2012-1-27,65,52,38,44,39,33,100,67,34,30.14,30.07,30.00,10,7,2,14,3,17,0.00,0,,181
2012-1-28,61,51,40,43,34,25,100,63,25,30.43,30.29,30.12,10,10,9,17,6,23,0.00,1,,19
2012-1-29,61,46,31,31,26,17,89,54,19,30.51,30.43,30.38,10,10,9,10,2,14,0.00,0,,110
2012-1-30,66,49,31,45,36,29,96,62,28,30.39,30.32,30.25,10,10,8,15,4,18,0.00,1,,141
2012-1-31,74,62,50,64,58,46,93,80,66,30.24,30.17,30.10,10,9,4,14,8,18,0.13,7,Rain-Thunderstorm,152